Strona główna
METAR-TAF:

METAR-TAF

Lotnisko :

Port lotniczy Pointe-Noire

Pointe-Noire, Kongo

Szerokość geograficzna: 04-49S, Długość geograficzna: 011-54E, wysokość: 17 m

Aktualna obserwacja pogody

Raport powstał 1 godzina i 7 minut temu, godzina 11:00 UTC
Wiatr 7 kt od południowo-południowy zachód, zmienny między południowo-południowy wschód i południowy zachód
Temperatura 26°C
Wilgotność 74%
Ciśnienie 1014 hPa
Widzialność: 9000 m
Rozproszone chmury na wysokości 1600 ft
Przerywane chmury na wysokości 2600 ft

METAR: FCPP 181100Z 20007KT 160V230 9000 SCT016 BKN026 26/21 Q1014 NOSIG

czas: 13:07 (12:07 UTC)

Prognoza

Raport powstał 1 godzina i 7 minut temu, godzina 11:00 UTC
Prognoza ważna od 18 godzina 12 UTC do 19 godzina 12 UTC
Wiatr 8 kt od południowo-południowy zachód
Widzialność: 9000 m
Rozproszone chmury na wysokości 1800 ft
Prawdopodobieństwo 30%
od 19 godzina 03 UTC do 19 godzina 06 UTC
Widzialność: 3000 m
zamglenie

TAF: FCPP 181100Z 1812/1912 20008KT 9000 SCT018 PROB30 1903/1906 3000 BR

Obserwacja i prognoza pogody dla ponad 4000 lotnisk (raport METAR i TAF).

Dostępne stacje oznaczono żółtymi i czerwonymi punktami na mapie.

Najedź kursorem aby zobaczyć nazwę stacji.

Kliknij aby zobaczyć obserwacje i prognozy pogody.

Aby zmienić mapę: kliknij na zielony przycisk z czarnym krzyżykiem, aby powiększyć; na zielony przycisk z myślnikiem, aby pomniejszyć; na zielone strzałki, aby przejść do map sąsiednich.


METAR-TAF: